sensor_id;sensor_type;location;lat;lon;timestamp;temperature;humidity
17726;DHT22;8983;53.156;17.960;2024-03-02T00:03:37;10.30;99.90
17726;DHT22;8983;53.156;17.960;2024-03-02T00:08:34;10.30;99.90
17726;DHT22;8983;53.156;17.960;2024-03-02T00:11:03;10.30;99.90
17726;DHT22;8983;53.156;17.960;2024-03-02T00:13:32;10.30;99.90
17726;DHT22;8983;53.156;17.960;2024-03-02T00:16:02;10.30;99.90
17726;DHT22;8983;53.156;17.960;2024-03-02T00:18:34;10.30;99.90
17726;DHT22;8983;53.156;17.960;2024-03-02T00:21:03;10.30;99.90
17726;DHT22;8983;53.156;17.960;2024-03-02T00:23:36;10.30;99.90
17726;DHT22;8983;53.156;17.960;2024-03-02T00:26:07;10.30;99.90
17726;DHT22;8983;53.156;17.960;2024-03-02T00:28:40;10.20;99.90
17726;DHT22;8983;53.156;17.960;2024-03-02T00:31:11;10.20;99.90
17726;DHT22;8983;53.156;17.960;2024-03-02T00:33:41;10.20;99.90
17726;DHT22;8983;53.156;17.960;2024-03-02T00:36:11;11.20;99.90
17726;DHT22;8983;53.156;17.960;2024-03-02T00:38:47;10.20;99.90
17726;DHT22;8983;53.156;17.960;2024-03-02T00:41:21;10.20;99.90
17726;DHT22;8983;53.156;17.960;2024-03-02T00:44:00;10.20;99.90
17726;DHT22;8983;53.156;17.960;2024-03-02T00:46:30;10.20;99.90
17726;DHT22;8983;53.156;17.960;2024-03-02T00:49:02;10.10;99.90
17726;DHT22;8983;53.156;17.960;2024-03-02T00:51:32;10.10;99.90
17726;DHT22;8983;53.156;17.960;2024-03-02T00:54:04;10.10;99.90
17726;DHT22;8983;53.156;17.960;2024-03-02T00:56:34;10.10;99.90
17726;DHT22;8983;53.156;17.960;2024-03-02T00:59:03;10.10;99.90
17726;DHT22;8983;53.156;17.960;2024-03-02T01:01:31;10.00;99.90
17726;DHT22;8983;53.156;17.960;2024-03-02T01:03:59;10.00;99.90
17726;DHT22;8983;53.156;17.960;2024-03-02T01:06:27;10.00;99.90
17726;DHT22;8983;53.156;17.960;2024-03-02T01:08:55;10.00;99.90
17726;DHT22;8983;53.156;17.960;2024-03-02T01:11:23;10.00;99.90
17726;DHT22;8983;53.156;17.960;2024-03-02T01:13:54;10.00;99.90
17726;DHT22;8983;53.156;17.960;2024-03-02T01:16:22;10.00;99.90
17726;DHT22;8983;53.156;17.960;2024-03-02T01:18:50;10.00;99.90
17726;DHT22;8983;53.156;17.960;2024-03-02T01:23:47;10.00;99.90
17726;DHT22;8983;53.156;17.960;2024-03-02T01:26:15;10.00;99.90
17726;DHT22;8983;53.156;17.960;2024-03-02T01:28:43;9.90;99.90
17726;DHT22;8983;53.156;17.960;2024-03-02T01:31:13;10.10;99.90
17726;DHT22;8983;53.156;17.960;2024-03-02T01:33:41;10.00;99.90
17726;DHT22;8983;53.156;17.960;2024-03-02T01:36:09;10.00;99.90
17726;DHT22;8983;53.156;17.960;2024-03-02T01:41:06;10.00;99.90
17726;DHT22;8983;53.156;17.960;2024-03-02T01:43:34;9.90;99.90
17726;DHT22;8983;53.156;17.960;2024-03-02T01:46:07;10.00;99.90
17726;DHT22;8983;53.156;17.960;2024-03-02T01:48:37;9.90;99.90
17726;DHT22;8983;53.156;17.960;2024-03-02T01:51:06;10.60;99.90
17726;DHT22;8983;53.156;17.960;2024-03-02T01:53:34;11.50;99.90
17726;DHT22;8983;53.156;17.960;2024-03-02T01:56:03;10.30;99.90
17726;DHT22;8983;53.156;17.960;2024-03-02T01:58:31;9.90;99.90
17726;DHT22;8983;53.156;17.960;2024-03-02T02:03:28;9.90;99.90
17726;DHT22;8983;53.156;17.960;2024-03-02T02:05:58;9.90;99.90
17726;DHT22;8983;53.156;17.960;2024-03-02T02:08:26;9.90;99.90
17726;DHT22;8983;53.156;17.960;2024-03-02T02:10:54;9.90;99.90
17726;DHT22;8983;53.156;17.960;2024-03-02T02:13:22;9.90;99.90
17726;DHT22;8983;53.156;17.960;2024-03-02T02:15:51;9.80;99.90
17726;DHT22;8983;53.156;17.960;2024-03-02T02:18:20;9.80;99.90
17726;DHT22;8983;53.156;17.960;2024-03-02T02:20:48;9.70;99.90
17726;DHT22;8983;53.156;17.960;2024-03-02T02:23:18;10.60;99.90
17726;DHT22;8983;53.156;17.960;2024-03-02T02:25:46;9.90;99.90
17726;DHT22;8983;53.156;17.960;2024-03-02T02:30:42;9.60;99.90
17726;DHT22;8983;53.156;17.960;2024-03-02T02:33:10;9.60;99.90
17726;DHT22;8983;53.156;17.960;2024-03-02T02:35:38;11.10;99.90
17726;DHT22;8983;53.156;17.960;2024-03-02T02:38:06;9.50;99.90
17726;DHT22;8983;53.156;17.960;2024-03-02T02:40:35;9.50;99.90
17726;DHT22;8983;53.156;17.960;2024-03-02T02:43:04;9.50;99.90
17726;DHT22;8983;53.156;17.960;2024-03-02T02:45:33;9.50;99.90
17726;DHT22;8983;53.156;17.960;2024-03-02T02:48:01;10.80;99.90
17726;DHT22;8983;53.156;17.960;2024-03-02T02:50:30;9.50;99.90
17726;DHT22;8983;53.156;17.960;2024-03-02T02:52:58;9.40;99.90
17726;DHT22;8983;53.156;17.960;2024-03-02T02:55:26;9.40;99.90
17726;DHT22;8983;53.156;17.960;2024-03-02T02:57:56;9.40;99.90
17726;DHT22;8983;53.156;17.960;2024-03-02T03:00:24;9.00;99.90
17726;DHT22;8983;53.156;17.960;2024-03-02T03:02:52;10.50;99.90
17726;DHT22;8983;53.156;17.960;2024-03-02T03:07:49;9.20;99.90
17726;DHT22;8983;53.156;17.960;2024-03-02T03:10:17;9.10;99.90
17726;DHT22;8983;53.156;17.960;2024-03-02T03:12:48;9.20;99.90
17726;DHT22;8983;53.156;17.960;2024-03-02T03:15:18;9.30;99.90
17726;DHT22;8983;53.156;17.960;2024-03-02T03:20:15;9.00;99.90
17726;DHT22;8983;53.156;17.960;2024-03-02T03:25:12;9.00;99.90
17726;DHT22;8983;53.156;17.960;2024-03-02T03:27:40;9.00;99.90
17726;DHT22;8983;53.156;17.960;2024-03-02T03:30:10;11.80;99.90
17726;DHT22;8983;53.156;17.960;2024-03-02T03:32:39;9.40;99.90
17726;DHT22;8983;53.156;17.960;2024-03-02T03:35:08;9.00;99.90
17726;DHT22;8983;53.156;17.960;2024-03-02T03:40:06;9.10;99.90
17726;DHT22;8983;53.156;17.960;2024-03-02T03:42:37;9.40;99.90
17726;DHT22;8983;53.156;17.960;2024-03-02T03:45:07;9.10;99.90
17726;DHT22;8983;53.156;17.960;2024-03-02T03:47:35;9.00;99.90
17726;DHT22;8983;53.156;17.960;2024-03-02T03:50:06;9.10;99.90
17726;DHT22;8983;53.156;17.960;2024-03-02T03:55:03;8.90;99.90
17726;DHT22;8983;53.156;17.960;2024-03-02T03:57:33;9.30;99.90
17726;DHT22;8983;53.156;17.960;2024-03-02T04:00:02;9.20;99.90
17726;DHT22;8983;53.156;17.960;2024-03-02T04:02:30;9.20;99.90
17726;DHT22;8983;53.156;17.960;2024-03-02T04:04:58;9.00;99.90
17726;DHT22;8983;53.156;17.960;2024-03-02T04:07:27;9.10;99.90
17726;DHT22;8983;53.156;17.960;2024-03-02T04:09:56;9.40;99.90
17726;DHT22;8983;53.156;17.960;2024-03-02T04:14:52;9.10;99.90
17726;DHT22;8983;53.156;17.960;2024-03-02T04:17:21;8.90;99.90
17726;DHT22;8983;53.156;17.960;2024-03-02T04:22:17;9.00;99.90
17726;DHT22;8983;53.156;17.960;2024-03-02T04:24:52;8.80;99.90
17726;DHT22;8983;53.156;17.960;2024-03-02T04:42:14;9.00;99.90
17726;DHT22;8983;53.156;17.960;2024-03-02T04:47:10;8.90;99.90
17726;DHT22;8983;53.156;17.960;2024-03-02T04:49:39;9.00;99.90
17726;DHT22;8983;53.156;17.960;2024-03-02T04:54:36;9.20;99.90
17726;DHT22;8983;53.156;17.960;2024-03-02T04:57:25;9.60;99.90
17726;DHT22;8983;53.156;17.960;2024-03-02T05:04:50;9.20;99.90
17726;DHT22;8983;53.156;17.960;2024-03-02T05:12:16;9.10;99.90
17726;DHT22;8983;53.156;17.960;2024-03-02T05:14:59;9.10;99.90
17726;DHT22;8983;53.156;17.960;2024-03-02T05:17:27;8.90;99.90
17726;DHT22;8983;53.156;17.960;2024-03-02T05:22:24;9.40;99.90
17726;DHT22;8983;53.156;17.960;2024-03-02T05:27:20;9.00;99.90
17726;DHT22;8983;53.156;17.960;2024-03-02T05:32:18;9.00;99.90
17726;DHT22;8983;53.156;17.960;2024-03-02T05:37:15;8.90;99.90
17726;DHT22;8983;53.156;17.960;2024-03-02T05:39:43;9.10;99.90
17726;DHT22;8983;53.156;17.960;2024-03-02T05:42:11;9.20;99.90
17726;DHT22;8983;53.156;17.960;2024-03-02T05:44:39;8.80;99.90
17726;DHT22;8983;53.156;17.960;2024-03-02T05:47:08;9.00;99.90
17726;DHT22;8983;53.156;17.960;2024-03-02T05:49:40;9.10;99.90
17726;DHT22;8983;53.156;17.960;2024-03-02T05:52:09;9.10;99.90
17726;DHT22;8983;53.156;17.960;2024-03-02T05:54:38;9.30;99.90
17726;DHT22;8983;53.156;17.960;2024-03-02T05:57:06;9.20;99.90
17726;DHT22;8983;53.156;17.960;2024-03-02T05:59:56;9.10;99.90
17726;DHT22;8983;53.156;17.960;2024-03-02T06:02:24;8.90;99.90
17726;DHT22;8983;53.156;17.960;2024-03-02T06:04:56;8.90;99.90
17726;DHT22;8983;53.156;17.960;2024-03-02T06:07:24;9.20;99.90
17726;DHT22;8983;53.156;17.960;2024-03-02T06:09:52;8.90;99.90
17726;DHT22;8983;53.156;17.960;2024-03-02T06:12:20;8.90;99.90
17726;DHT22;8983;53.156;17.960;2024-03-02T06:14:49;8.90;99.90
17726;DHT22;8983;53.156;17.960;2024-03-02T06:22:16;9.10;99.90
17726;DHT22;8983;53.156;17.960;2024-03-02T06:24:46;9.00;99.90
17726;DHT22;8983;53.156;17.960;2024-03-02T06:27:14;9.00;99.90
17726;DHT22;8983;53.156;17.960;2024-03-02T06:29:42;9.00;99.90
17726;DHT22;8983;53.156;17.960;2024-03-02T06:32:10;9.30;99.90
17726;DHT22;8983;53.156;17.960;2024-03-02T06:34:37;8.90;99.90
17726;DHT22;8983;53.156;17.960;2024-03-02T06:39:35;9.20;99.90
17726;DHT22;8983;53.156;17.960;2024-03-02T06:42:04;9.10;99.90
17726;DHT22;8983;53.156;17.960;2024-03-02T06:44:32;9.20;99.90
17726;DHT22;8983;53.156;17.960;2024-03-02T06:47:00;9.00;99.90
17726;DHT22;8983;53.156;17.960;2024-03-02T06:51:57;8.90;99.90
17726;DHT22;8983;53.156;17.960;2024-03-02T06:56:55;9.30;99.90
17726;DHT22;8983;53.156;17.960;2024-03-02T07:01:51;9.80;99.90
17726;DHT22;8983;53.156;17.960;2024-03-02T07:11:49;9.50;99.90
17726;DHT22;8983;53.156;17.960;2024-03-02T07:14:19;9.30;99.90
17726;DHT22;8983;53.156;17.960;2024-03-02T07:24:13;9.30;99.90
17726;DHT22;8983;53.156;17.960;2024-03-02T07:29:14;9.50;99.90
17726;DHT22;8983;53.156;17.960;2024-03-02T07:31:44;9.20;99.90
17726;DHT22;8983;53.156;17.960;2024-03-02T07:34:12;9.20;99.90
17726;DHT22;8983;53.156;17.960;2024-03-02T07:39:10;9.30;99.90
17726;DHT22;8983;53.156;17.960;2024-03-02T07:41:38;9.00;99.90
17726;DHT22;8983;53.156;17.960;2024-03-02T07:49:08;9.50;99.90
17726;DHT22;8983;53.156;17.960;2024-03-02T07:51:36;9.80;99.90
17726;DHT22;8983;53.156;17.960;2024-03-02T08:01:31;9.70;99.90
17726;DHT22;8983;53.156;17.960;2024-03-02T08:04:00;9.80;99.90
17726;DHT22;8983;53.156;17.960;2024-03-02T08:06:31;9.80;99.90
17726;DHT22;8983;53.156;17.960;2024-03-02T08:09:01;10.10;99.90
17726;DHT22;8983;53.156;17.960;2024-03-02T08:11:32;9.90;99.90
17726;DHT22;8983;53.156;17.960;2024-03-02T08:14:00;10.40;99.90
17726;DHT22;8983;53.156;17.960;2024-03-02T08:21:26;10.00;99.90
17726;DHT22;8983;53.156;17.960;2024-03-02T08:23:58;10.40;99.90
17726;DHT22;8983;53.156;17.960;2024-03-02T08:26:27;10.50;99.90
17726;DHT22;8983;53.156;17.960;2024-03-02T08:31:28;10.50;99.90
17726;DHT22;8983;53.156;17.960;2024-03-02T08:38:54;10.70;99.90
17726;DHT22;8983;53.156;17.960;2024-03-02T08:41:24;10.70;99.90
17726;DHT22;8983;53.156;17.960;2024-03-02T08:46:21;10.80;99.90
17726;DHT22;8983;53.156;17.960;2024-03-02T08:48:50;10.80;99.90
17726;DHT22;8983;53.156;17.960;2024-03-02T08:51:18;10.90;99.90
17726;DHT22;8983;53.156;17.960;2024-03-02T08:53:46;11.00;99.90
17726;DHT22;8983;53.156;17.960;2024-03-02T08:56:14;12.50;99.90
17726;DHT22;8983;53.156;17.960;2024-03-02T08:58:45;11.20;99.90
17726;DHT22;8983;53.156;17.960;2024-03-02T09:01:13;11.40;99.90
17726;DHT22;8983;53.156;17.960;2024-03-02T09:03:42;11.50;99.90
17726;DHT22;8983;53.156;17.960;2024-03-02T09:13:38;11.60;99.90
17726;DHT22;8983;53.156;17.960;2024-03-02T09:16:08;11.60;99.90
17726;DHT22;8983;53.156;17.960;2024-03-02T09:18:38;11.60;99.90
17726;DHT22;8983;53.156;17.960;2024-03-02T09:21:06;11.60;99.90
17726;DHT22;8983;53.156;17.960;2024-03-02T09:23:34;11.50;99.90
17726;DHT22;8983;53.156;17.960;2024-03-02T09:26:03;11.60;99.90
17726;DHT22;8983;53.156;17.960;2024-03-02T09:31:01;11.70;99.90
17726;DHT22;8983;53.156;17.960;2024-03-02T09:33:30;11.70;99.90
17726;DHT22;8983;53.156;17.960;2024-03-02T09:35:59;11.80;99.90
17726;DHT22;8983;53.156;17.960;2024-03-02T09:38:27;11.90;99.90
17726;DHT22;8983;53.156;17.960;2024-03-02T09:40:55;11.90;99.90
17726;DHT22;8983;53.156;17.960;2024-03-02T09:43:23;11.90;99.90
17726;DHT22;8983;53.156;17.960;2024-03-02T09:48:20;12.00;99.90
17726;DHT22;8983;53.156;17.960;2024-03-02T09:50:50;12.00;99.90
17726;DHT22;8983;53.156;17.960;2024-03-02T09:53:18;12.00;99.90
17726;DHT22;8983;53.156;17.960;2024-03-02T10:00:43;12.20;99.90
17726;DHT22;8983;53.156;17.960;2024-03-02T10:05:40;12.50;99.90
17726;DHT22;8983;53.156;17.960;2024-03-02T10:08:10;12.60;99.90
17726;DHT22;8983;53.156;17.960;2024-03-02T10:13:10;12.70;99.90
17726;DHT22;8983;53.156;17.960;2024-03-02T10:15:39;12.80;99.90
17726;DHT22;8983;53.156;17.960;2024-03-02T10:18:09;12.80;99.90
17726;DHT22;8983;53.156;17.960;2024-03-02T10:20:39;12.80;99.90
17726;DHT22;8983;53.156;17.960;2024-03-02T10:23:13;12.80;99.90
17726;DHT22;8983;53.156;17.960;2024-03-02T10:30:55;13.00;99.90
17726;DHT22;8983;53.156;17.960;2024-03-02T10:33:24;13.50;99.90
17726;DHT22;8983;53.156;17.960;2024-03-02T10:35:52;13.40;99.90
17726;DHT22;8983;53.156;17.960;2024-03-02T10:38:22;13.60;99.90
17726;DHT22;8983;53.156;17.960;2024-03-02T10:40:50;13.80;99.90
17726;DHT22;8983;53.156;17.960;2024-03-02T10:43:20;14.10;99.90
17726;DHT22;8983;53.156;17.960;2024-03-02T10:45:49;14.30;99.90
17726;DHT22;8983;53.156;17.960;2024-03-02T10:48:18;14.40;99.90
17726;DHT22;8983;53.156;17.960;2024-03-02T10:50:48;14.90;99.90
17726;DHT22;8983;53.156;17.960;2024-03-02T10:53:17;15.20;99.90
17726;DHT22;8983;53.156;17.960;2024-03-02T10:55:50;14.90;99.90
17726;DHT22;8983;53.156;17.960;2024-03-02T10:58:22;14.90;99.90
17726;DHT22;8983;53.156;17.960;2024-03-02T11:00:51;14.90;99.90
17726;DHT22;8983;53.156;17.960;2024-03-02T11:03:19;15.00;99.90
17726;DHT22;8983;53.156;17.960;2024-03-02T11:05:48;15.20;99.90
17726;DHT22;8983;53.156;17.960;2024-03-02T11:08:18;15.20;99.90
17726;DHT22;8983;53.156;17.960;2024-03-02T11:10:50;15.10;99.90
17726;DHT22;8983;53.156;17.960;2024-03-02T11:13:24;15.10;99.90
17726;DHT22;8983;53.156;17.960;2024-03-02T11:15:59;15.10;99.90
17726;DHT22;8983;53.156;17.960;2024-03-02T11:18:28;15.10;99.90
17726;DHT22;8983;53.156;17.960;2024-03-02T11:23:32;15.60;99.90
17726;DHT22;8983;53.156;17.960;2024-03-02T11:26:19;15.70;99.90
17726;DHT22;8983;53.156;17.960;2024-03-02T11:28:48;15.90;99.90
17726;DHT22;8983;53.156;17.960;2024-03-02T11:31:16;16.10;99.90
17726;DHT22;8983;53.156;17.960;2024-03-02T11:33:45;16.20;99.90
17726;DHT22;8983;53.156;17.960;2024-03-02T11:36:13;16.20;99.90
17726;DHT22;8983;53.156;17.960;2024-03-02T11:38:43;16.40;99.90
17726;DHT22;8983;53.156;17.960;2024-03-02T11:41:13;16.60;99.90
17726;DHT22;8983;53.156;17.960;2024-03-02T11:43:42;16.80;99.90
17726;DHT22;8983;53.156;17.960;2024-03-02T11:46:12;17.00;99.90
17726;DHT22;8983;53.156;17.960;2024-03-02T11:48:43;17.10;99.90
17726;DHT22;8983;53.156;17.960;2024-03-02T11:51:11;17.20;99.90
17726;DHT22;8983;53.156;17.960;2024-03-02T11:53:39;17.20;99.90
17726;DHT22;8983;53.156;17.960;2024-03-02T11:56:09;17.30;99.90
17726;DHT22;8983;53.156;17.960;2024-03-02T11:58:41;17.30;99.90
17726;DHT22;8983;53.156;17.960;2024-03-02T12:01:10;17.30;99.90
17726;DHT22;8983;53.156;17.960;2024-03-02T12:03:40;17.10;99.90
17726;DHT22;8983;53.156;17.960;2024-03-02T12:06:09;17.00;99.90
17726;DHT22;8983;53.156;17.960;2024-03-02T12:08:38;16.90;99.90
17726;DHT22;8983;53.156;17.960;2024-03-02T12:11:07;16.90;99.90
17726;DHT22;8983;53.156;17.960;2024-03-02T12:13:35;17.10;99.90
17726;DHT22;8983;53.156;17.960;2024-03-02T12:16:06;17.20;99.90
17726;DHT22;8983;53.156;17.960;2024-03-02T12:21:03;17.20;99.90
17726;DHT22;8983;53.156;17.960;2024-03-02T12:23:34;16.80;99.90
17726;DHT22;8983;53.156;17.960;2024-03-02T12:26:03;17.00;99.90
17726;DHT22;8983;53.156;17.960;2024-03-02T12:28:32;16.90;99.90
17726;DHT22;8983;53.156;17.960;2024-03-02T12:31:01;16.90;99.90
17726;DHT22;8983;53.156;17.960;2024-03-02T12:33:31;17.20;99.90
17726;DHT22;8983;53.156;17.960;2024-03-02T12:45:53;17.60;99.90
17726;DHT22;8983;53.156;17.960;2024-03-02T12:48:23;17.90;99.90
17726;DHT22;8983;53.156;17.960;2024-03-02T12:50:52;18.00;99.90
17726;DHT22;8983;53.156;17.960;2024-03-02T12:53:21;18.20;99.90
17726;DHT22;8983;53.156;17.960;2024-03-02T12:55:50;18.20;99.90
17726;DHT22;8983;53.156;17.960;2024-03-02T12:58:19;18.30;99.90
17726;DHT22;8983;53.156;17.960;2024-03-02T13:00:48;18.20;99.90
17726;DHT22;8983;53.156;17.960;2024-03-02T13:03:18;18.60;99.90
17726;DHT22;8983;53.156;17.960;2024-03-02T13:05:52;18.20;99.90
17726;DHT22;8983;53.156;17.960;2024-03-02T13:08:21;18.20;99.90
17726;DHT22;8983;53.156;17.960;2024-03-02T13:10:49;18.30;99.90
17726;DHT22;8983;53.156;17.960;2024-03-02T13:13:17;18.40;99.90
17726;DHT22;8983;53.156;17.960;2024-03-02T13:15:45;18.40;99.90
17726;DHT22;8983;53.156;17.960;2024-03-02T13:18:13;18.30;99.90
17726;DHT22;8983;53.156;17.960;2024-03-02T13:20:42;18.30;99.90
17726;DHT22;8983;53.156;17.960;2024-03-02T13:23:11;18.20;99.90
17726;DHT22;8983;53.156;17.960;2024-03-02T13:25:39;17.40;99.90
17726;DHT22;8983;53.156;17.960;2024-03-02T13:28:07;17.90;99.90
17726;DHT22;8983;53.156;17.960;2024-03-02T13:30:36;17.70;99.90
17726;DHT22;8983;53.156;17.960;2024-03-02T13:33:04;18.00;99.90
17726;DHT22;8983;53.156;17.960;2024-03-02T13:35:32;17.60;99.90
17726;DHT22;8983;53.156;17.960;2024-03-02T13:40:30;17.80;99.90
17726;DHT22;8983;53.156;17.960;2024-03-02T13:43:03;17.80;99.90
17726;DHT22;8983;53.156;17.960;2024-03-02T13:45:31;17.80;99.90
17726;DHT22;8983;53.156;17.960;2024-03-02T13:48:00;17.80;99.90
17726;DHT22;8983;53.156;17.960;2024-03-02T13:50:28;17.80;99.90
17726;DHT22;8983;53.156;17.960;2024-03-02T13:52:57;17.90;99.90
17726;DHT22;8983;53.156;17.960;2024-03-02T13:55:25;17.70;99.90
17726;DHT22;8983;53.156;17.960;2024-03-02T13:57:55;18.10;99.90
17726;DHT22;8983;53.156;17.960;2024-03-02T14:00:23;18.30;99.90
17726;DHT22;8983;53.156;17.960;2024-03-02T14:02:51;18.40;99.90
17726;DHT22;8983;53.156;17.960;2024-03-02T14:07:48;18.00;99.90
17726;DHT22;8983;53.156;17.960;2024-03-02T14:10:17;17.90;99.90
17726;DHT22;8983;53.156;17.960;2024-03-02T14:12:49;17.70;99.90
17726;DHT22;8983;53.156;17.960;2024-03-02T14:15:18;17.90;99.90
17726;DHT22;8983;53.156;17.960;2024-03-02T14:17:47;17.50;99.90
17726;DHT22;8983;53.156;17.960;2024-03-02T14:20:16;17.70;99.90
17726;DHT22;8983;53.156;17.960;2024-03-02T14:22:49;17.70;99.90
17726;DHT22;8983;53.156;17.960;2024-03-02T14:30:36;17.40;99.90
17726;DHT22;8983;53.156;17.960;2024-03-02T14:33:04;17.20;99.90
17726;DHT22;8983;53.156;17.960;2024-03-02T14:47:57;15.70;99.90
17726;DHT22;8983;53.156;17.960;2024-03-02T14:50:26;15.80;99.90
17726;DHT22;8983;53.156;17.960;2024-03-02T14:55:26;15.60;99.90
17726;DHT22;8983;53.156;17.960;2024-03-02T15:02:51;15.40;99.90
17726;DHT22;8983;53.156;17.960;2024-03-02T15:05:20;15.10;99.90
17726;DHT22;8983;53.156;17.960;2024-03-02T15:20:11;14.70;99.90
17726;DHT22;8983;53.156;17.960;2024-03-02T15:22:41;14.60;99.90
17726;DHT22;8983;53.156;17.960;2024-03-02T15:30:07;14.20;99.90
17726;DHT22;8983;53.156;17.960;2024-03-02T15:40:05;14.00;99.90
17726;DHT22;8983;53.156;17.960;2024-03-02T15:42:35;14.10;99.90
17726;DHT22;8983;53.156;17.960;2024-03-02T15:45:04;14.10;99.90
17726;DHT22;8983;53.156;17.960;2024-03-02T15:47:32;13.90;99.90
17726;DHT22;8983;53.156;17.960;2024-03-02T15:50:03;13.90;99.90
17726;DHT22;8983;53.156;17.960;2024-03-02T15:57:30;14.00;99.90
17726;DHT22;8983;53.156;17.960;2024-03-02T15:59:58;13.60;99.90
17726;DHT22;8983;53.156;17.960;2024-03-02T16:14:51;13.30;99.90
17726;DHT22;8983;53.156;17.960;2024-03-02T16:17:19;13.80;99.90
17726;DHT22;8983;53.156;17.960;2024-03-02T16:19:47;13.50;99.90
17726;DHT22;8983;53.156;17.960;2024-03-02T16:29:44;13.10;99.90
17726;DHT22;8983;53.156;17.960;2024-03-02T16:32:14;13.60;99.90
17726;DHT22;8983;53.156;17.960;2024-03-02T16:34:43;13.10;99.90
17726;DHT22;8983;53.156;17.960;2024-03-02T16:42:09;13.10;99.90
17726;DHT22;8983;53.156;17.960;2024-03-02T16:49:36;12.80;99.90
17726;DHT22;8983;53.156;17.960;2024-03-02T16:52:05;12.60;99.90
17726;DHT22;8983;53.156;17.960;2024-03-02T16:54:33;12.70;99.90
17726;DHT22;8983;53.156;17.960;2024-03-02T17:01:58;12.40;99.90
17726;DHT22;8983;53.156;17.960;2024-03-02T17:06:57;12.60;99.90
17726;DHT22;8983;53.156;17.960;2024-03-02T17:19:20;12.20;99.90
17726;DHT22;8983;53.156;17.960;2024-03-02T17:24:18;12.10;99.90
17726;DHT22;8983;53.156;17.960;2024-03-02T17:41:39;12.60;99.90
17726;DHT22;8983;53.156;17.960;2024-03-02T17:44:09;12.70;99.90
17726;DHT22;8983;53.156;17.960;2024-03-02T17:46:37;12.00;99.90
17726;DHT22;8983;53.156;17.960;2024-03-02T17:59:01;12.00;99.90
17726;DHT22;8983;53.156;17.960;2024-03-02T18:03:58;12.40;99.90
17726;DHT22;8983;53.156;17.960;2024-03-02T18:08:54;12.10;99.90
17726;DHT22;8983;53.156;17.960;2024-03-02T18:16:21;11.70;99.90
17726;DHT22;8983;53.156;17.960;2024-03-02T18:31:16;11.90;99.90
17726;DHT22;8983;53.156;17.960;2024-03-02T18:33:49;12.60;99.90
17726;DHT22;8983;53.156;17.960;2024-03-02T18:43:43;11.70;99.90
17726;DHT22;8983;53.156;17.960;2024-03-02T18:48:40;11.90;99.90
17726;DHT22;8983;53.156;17.960;2024-03-02T18:51:09;11.90;99.90
17726;DHT22;8983;53.156;17.960;2024-03-02T18:56:06;11.90;99.90
17726;DHT22;8983;53.156;17.960;2024-03-02T18:58:34;11.90;99.90
17726;DHT22;8983;53.156;17.960;2024-03-02T19:06:00;11.80;99.90
17726;DHT22;8983;53.156;17.960;2024-03-02T19:08:30;11.60;99.90
17726;DHT22;8983;53.156;17.960;2024-03-02T19:13:27;12.20;99.90
17726;DHT22;8983;53.156;17.960;2024-03-02T19:15:55;11.80;99.90
17726;DHT22;8983;53.156;17.960;2024-03-02T19:18:23;11.80;99.90
17726;DHT22;8983;53.156;17.960;2024-03-02T19:23:19;11.90;99.90
17726;DHT22;8983;53.156;17.960;2024-03-02T19:25:59;12.00;99.90
17726;DHT22;8983;53.156;17.960;2024-03-02T19:30:56;11.50;99.90
17726;DHT22;8983;53.156;17.960;2024-03-02T19:33:24;11.40;99.90
17726;DHT22;8983;53.156;17.960;2024-03-02T19:35:52;11.60;99.90
17726;DHT22;8983;53.156;17.960;2024-03-02T19:38:25;11.50;99.90
17726;DHT22;8983;53.156;17.960;2024-03-02T19:40:53;11.50;99.90
17726;DHT22;8983;53.156;17.960;2024-03-02T19:43:22;11.50;99.90
17726;DHT22;8983;53.156;17.960;2024-03-02T19:53:17;11.60;99.90
17726;DHT22;8983;53.156;17.960;2024-03-02T19:55:45;11.20;99.90
17726;DHT22;8983;53.156;17.960;2024-03-02T19:58:14;11.30;99.90
17726;DHT22;8983;53.156;17.960;2024-03-02T20:00:43;11.30;99.90
17726;DHT22;8983;53.156;17.960;2024-03-02T20:03:12;11.40;99.90
17726;DHT22;8983;53.156;17.960;2024-03-02T20:08:09;9.60;99.90
17726;DHT22;8983;53.156;17.960;2024-03-02T20:13:06;11.30;99.90
17726;DHT22;8983;53.156;17.960;2024-03-02T20:15:34;11.20;99.90
17726;DHT22;8983;53.156;17.960;2024-03-02T20:18:04;11.10;99.90
17726;DHT22;8983;53.156;17.960;2024-03-02T20:25:31;11.10;99.90
17726;DHT22;8983;53.156;17.960;2024-03-02T20:27:59;11.80;99.90
17726;DHT22;8983;53.156;17.960;2024-03-02T20:30:27;12.00;99.90
17726;DHT22;8983;53.156;17.960;2024-03-02T20:32:55;11.10;99.90
17726;DHT22;8983;53.156;17.960;2024-03-02T20:35:25;11.00;99.90
17726;DHT22;8983;53.156;17.960;2024-03-02T20:37:53;11.00;99.90
17726;DHT22;8983;53.156;17.960;2024-03-02T20:40:21;11.00;99.90
17726;DHT22;8983;53.156;17.960;2024-03-02T20:42:49;10.90;99.90
17726;DHT22;8983;53.156;17.960;2024-03-02T20:45:18;10.90;99.90
17726;DHT22;8983;53.156;17.960;2024-03-02T20:47:47;11.00;99.90
17726;DHT22;8983;53.156;17.960;2024-03-02T20:50:15;12.00;99.90
17726;DHT22;8983;53.156;17.960;2024-03-02T20:52:44;12.70;99.90
17726;DHT22;8983;53.156;17.960;2024-03-02T20:55:14;10.80;99.90
17726;DHT22;8983;53.156;17.960;2024-03-02T20:57:42;10.90;99.90
17726;DHT22;8983;53.156;17.960;2024-03-02T21:00:11;11.60;99.90
17726;DHT22;8983;53.156;17.960;2024-03-02T21:02:41;10.70;99.90
17726;DHT22;8983;53.156;17.960;2024-03-02T21:05:09;10.60;99.90
17726;DHT22;8983;53.156;17.960;2024-03-02T21:07:37;10.60;99.90
17726;DHT22;8983;53.156;17.960;2024-03-02T21:10:08;10.60;99.90
17726;DHT22;8983;53.156;17.960;2024-03-02T21:12:36;10.60;99.90
17726;DHT22;8983;53.156;17.960;2024-03-02T21:15:06;10.60;99.90
17726;DHT22;8983;53.156;17.960;2024-03-02T21:17:35;10.60;99.90
17726;DHT22;8983;53.156;17.960;2024-03-02T21:20:04;10.50;99.90
17726;DHT22;8983;53.156;17.960;2024-03-02T21:22:35;10.50;99.90
17726;DHT22;8983;53.156;17.960;2024-03-02T21:25:07;10.50;99.90
17726;DHT22;8983;53.156;17.960;2024-03-02T21:27:39;10.50;99.90
17726;DHT22;8983;53.156;17.960;2024-03-02T21:30:08;10.50;99.90
17726;DHT22;8983;53.156;17.960;2024-03-02T21:32:37;10.40;99.90
17726;DHT22;8983;53.156;17.960;2024-03-02T21:35:05;10.60;99.90
17726;DHT22;8983;53.156;17.960;2024-03-02T21:37:33;10.40;99.90
17726;DHT22;8983;53.156;17.960;2024-03-02T21:40:04;10.60;99.90
17726;DHT22;8983;53.156;17.960;2024-03-02T21:42:34;10.50;99.90
17726;DHT22;8983;53.156;17.960;2024-03-02T21:45:02;11.40;99.90
17726;DHT22;8983;53.156;17.960;2024-03-02T21:47:30;10.40;99.90
17726;DHT22;8983;53.156;17.960;2024-03-02T21:49:59;10.90;99.90
17726;DHT22;8983;53.156;17.960;2024-03-02T21:52:27;10.30;99.90
17726;DHT22;8983;53.156;17.960;2024-03-02T21:54:55;11.60;99.90
17726;DHT22;8983;53.156;17.960;2024-03-02T21:57:23;11.10;99.90
17726;DHT22;8983;53.156;17.960;2024-03-02T21:59:53;11.50;99.90
17726;DHT22;8983;53.156;17.960;2024-03-02T22:02:21;10.40;99.90